world map with BGSF marked

BGSF - Airport

This information may not be accurate or current and is not valid for navigation or flight planning. No warranty of fitness for any purpose is made or implied.

flag of Greenland

Donate via PayPal

Additional information is available on the NEW Great Circle Mapper

Location
City:  Kangerlussuaq, Qeqqata, Greenland
Near (Alt.):Sondre Strømfjord, Sondrestrom
Name:Kangerlussuaq Airport
ICAO / IATA:BGSF / SFJ

Details
Type:Airport (Aerodrome, Airfield)
Latitude:67°01'01"N (67.016969)
Longitude:50°41'22"W (-50.689324)
Elevation:165 ft (50 m)
Runways:1
Longest:9219 × 197 ft (2810 × 60 m)

Time
Timezone:UTC+31:08 (DST+34:08)
Local Time:

Weather
METAR:BGSF  220650Z AUTO 05012KT 9999NDV NCD M24/M27 Q1030
TAF:BGSF  (expired)

Related Locations
Nearby:
Farthest:YWKS: 11948 mi / 19229 km
Wilkins Runway (Casey), Upper Peterson Glacier, AQ

Find:

   beyond  
but within

Other Information
Maps:
Sources:

  


 


Great Circle Mapper   Great Circle Mapper
Great Circle Mapper FAQ   Great Circle Mapper FAQ
  Karl's Home Page
KLS²   KLS² Home
   GC on Facebook
Airlines of the World   Airlines of the World
Donate via PayPal


Copyright © 2004-2017, Karl L. Swartz. All rights reserved.
All trademarks mentioned herein belong to their respective owners.

Please see credits for attribution and copyright information.

Karl Swartz <karl@kls2.com>
  Powered by FreeBSD
Valid HTML 4.01!
Labeled with ICRA
hCard Microformat
Geo Microformat